createdAt,value
2023-02-21T00:00:05.205Z,16.78
2023-02-21T00:03:16.028Z,16.77
2023-02-21T00:06:16.396Z,16.79
2023-02-21T00:09:22.957Z,16.89
2023-02-21T00:12:23.689Z,16.92
2023-02-21T00:15:31.000Z,16.96
2023-02-21T00:18:31.236Z,17.11
2023-02-21T00:21:38.971Z,17.14
2023-02-21T00:24:39.672Z,17.15
2023-02-21T00:27:46.974Z,17.16
2023-02-21T00:30:47.671Z,17.24
2023-02-21T00:33:54.962Z,17.17
2023-02-21T00:36:55.314Z,17.21
2023-02-21T00:40:02.009Z,17.12
2023-02-21T00:43:08.954Z,17.23
2023-02-21T00:46:10.276Z,17.04
2023-02-21T00:49:17.816Z,17.01
2023-02-21T00:52:19.072Z,17.04
2023-02-21T00:55:26.570Z,16.97
2023-02-21T00:58:27.013Z,16.92
2023-02-21T01:01:33.879Z,16.91
2023-02-21T01:04:50.022Z,16.70
2023-02-21T01:07:56.900Z,16.76
2023-02-21T01:10:57.690Z,16.63
2023-02-21T01:14:05.011Z,16.38
2023-02-21T01:17:12.985Z,16.51
2023-02-21T01:20:19.974Z,16.27
2023-02-21T01:23:20.346Z,16.07
2023-02-21T01:26:26.978Z,15.93
2023-02-21T01:29:27.520Z,15.79
2023-02-21T01:32:33.997Z,15.80
2023-02-21T01:35:34.718Z,15.76
2023-02-21T01:38:42.016Z,15.72
2023-02-21T01:41:42.710Z,15.60
2023-02-21T01:45:03.980Z,15.62
2023-02-21T01:48:04.688Z,15.47
2023-02-21T01:51:12.271Z,15.36
2023-02-21T01:54:13.706Z,15.54
2023-02-21T01:57:22.954Z,15.59
2023-02-21T02:00:26.186Z,15.60
2023-02-21T02:03:42.022Z,15.86
2023-02-21T02:06:49.211Z,15.64
2023-02-21T02:09:50.244Z,15.68
2023-02-21T02:12:45.406Z,15.85
2023-02-21T02:15:59.002Z,15.76
2023-02-21T02:18:59.659Z,15.74
2023-02-21T02:22:06.979Z,16.09
2023-02-21T02:25:04.229Z,16.35
2023-02-21T02:28:01.948Z,16.15
2023-02-21T02:31:24.329Z,16.12
2023-02-21T02:34:35.936Z,16.24
2023-02-21T02:37:35.008Z,16.94
2023-02-21T02:40:40.264Z,16.78
2023-02-21T02:43:29.961Z,16.93
2023-02-21T02:46:18.262Z,17.38
2023-02-21T02:49:27.944Z,17.60
2023-02-21T02:52:15.236Z,17.76
2023-02-21T02:55:10.967Z,17.80
2023-02-21T02:58:00.908Z,18.31
2023-02-21T03:00:56.220Z,18.94
2023-02-21T03:04:22.916Z,19.77
2023-02-21T03:07:58.957Z,19.49
2023-02-21T03:11:04.347Z,20.08
2023-02-21T03:13:51.951Z,20.32
2023-02-21T03:16:52.272Z,20.84
2023-02-21T03:19:55.046Z,20.94
2023-02-21T03:22:45.737Z,21.27
2023-02-21T03:25:30.978Z,21.43
2023-02-21T03:28:14.333Z,21.74
2023-02-21T03:31:07.972Z,21.88
2023-02-21T03:33:57.185Z,22.44
2023-02-21T03:36:40.974Z,23.19
2023-02-21T03:39:24.083Z,23.91
2023-02-21T03:42:13.038Z,23.91
2023-02-21T03:44:55.241Z,24.28
2023-02-21T03:47:43.957Z,24.59
2023-02-21T03:50:33.256Z,25.17
2023-02-21T03:53:15.964Z,24.70
2023-02-21T03:56:05.192Z,25.27
2023-02-21T03:59:04.913Z,25.24
2023-02-21T04:01:53.316Z,25.45
2023-02-21T04:04:44.981Z,25.40
2023-02-21T04:07:30.241Z,25.50
2023-02-21T04:10:21.938Z,25.53
2023-02-21T04:13:05.206Z,25.35
2023-02-21T04:15:57.984Z,25.67
2023-02-21T04:18:43.189Z,26.06
2023-02-21T04:21:31.999Z,26.28
2023-02-21T04:24:17.205Z,26.51
2023-02-21T04:27:07.072Z,26.71
2023-02-21T04:29:54.216Z,26.66
2023-02-21T04:32:42.992Z,26.80
2023-02-21T04:35:32.995Z,25.94
2023-02-21T04:38:31.332Z,26.13
2023-02-21T04:41:14.584Z,25.88
2023-02-21T04:44:03.988Z,25.55
2023-02-21T04:46:52.970Z,25.38
2023-02-21T04:49:41.265Z,25.35
2023-02-21T04:52:23.948Z,25.56
2023-02-21T04:55:06.401Z,25.59
2023-02-21T04:57:54.876Z,25.68
2023-02-21T05:00:43.250Z,25.63
2023-02-21T05:03:37.933Z,25.44
2023-02-21T05:06:31.236Z,26.02
2023-02-21T05:09:12.896Z,25.73
2023-02-21T05:12:01.217Z,25.66
2023-02-21T05:14:43.996Z,25.85
2023-02-21T05:17:32.283Z,25.76
2023-02-21T05:20:18.997Z,25.83
2023-02-21T05:23:13.383Z,25.84
2023-02-21T05:25:56.016Z,25.90
2023-02-21T05:28:46.262Z,26.26
2023-02-21T05:31:28.930Z,26.22
2023-02-21T05:34:20.794Z,26.24
2023-02-21T05:37:03.941Z,26.03
2023-02-21T05:39:52.293Z,26.52
2023-02-21T05:42:34.974Z,26.47
2023-02-21T05:45:23.262Z,26.39
2023-02-21T05:48:08.015Z,26.26
2023-02-21T05:50:56.215Z,26.59
2023-02-21T05:53:37.931Z,26.51
2023-02-21T05:56:22.450Z,26.45
2023-02-21T05:59:10.990Z,26.02
2023-02-21T06:02:00.318Z,26.09
2023-02-21T06:04:41.970Z,26.40
2023-02-21T06:07:30.153Z,26.96
2023-02-21T06:10:13.050Z,26.66
2023-02-21T06:13:01.199Z,26.91
2023-02-21T06:15:43.014Z,27.00
2023-02-21T06:18:31.321Z,26.59
2023-02-21T06:21:14.189Z,26.56
2023-02-21T06:24:03.281Z,26.74
2023-02-21T06:26:46.032Z,26.69
2023-02-21T06:29:34.481Z,26.59
2023-02-21T06:32:16.910Z,26.61
2023-02-21T06:34:58.817Z,26.81
2023-02-21T06:37:48.027Z,26.70
2023-02-21T06:40:37.229Z,26.90
2023-02-21T06:43:19.950Z,26.79
2023-02-21T06:46:08.205Z,26.86
2023-02-21T06:48:50.022Z,26.75
2023-02-21T06:51:49.294Z,26.64
2023-02-21T06:54:30.951Z,26.88
2023-02-21T06:57:19.672Z,26.99
2023-02-21T07:00:02.885Z,26.92
2023-02-21T07:02:58.764Z,26.96
2023-02-21T07:05:54.076Z,27.20
2023-02-21T07:08:43.321Z,26.99
2023-02-21T07:11:26.925Z,27.15
2023-02-21T07:14:16.275Z,26.99
2023-02-21T07:16:58.957Z,26.99
2023-02-21T07:19:47.349Z,26.95
2023-02-21T07:22:33.965Z,27.09
2023-02-21T07:25:25.245Z,26.91
2023-02-21T07:28:07.904Z,26.80
2023-02-21T07:30:56.336Z,26.77
2023-02-21T07:33:38.950Z,26.81
2023-02-21T07:36:27.216Z,26.78
2023-02-21T07:39:09.041Z,26.86
2023-02-21T07:41:57.292Z,26.81
2023-02-21T07:44:39.962Z,27.07
2023-02-21T07:47:28.245Z,26.87
2023-02-21T07:50:11.039Z,26.85
2023-02-21T07:53:00.863Z,26.85
2023-02-21T07:55:44.292Z,26.50
2023-02-21T07:58:33.495Z,26.61
2023-02-21T08:01:16.132Z,26.55
2023-02-21T08:04:10.793Z,26.51
2023-02-21T08:07:00.007Z,26.53
2023-02-21T08:09:43.209Z,26.61
2023-02-21T08:12:31.927Z,26.50
2023-02-21T08:15:14.287Z,26.66
2023-02-21T08:18:02.945Z,26.76
2023-02-21T08:20:45.236Z,26.67
2023-02-21T08:23:33.897Z,26.67
2023-02-21T08:26:17.277Z,26.63
2023-02-21T08:29:04.973Z,26.55
2023-02-21T08:31:49.324Z,26.38
2023-02-21T08:34:38.081Z,26.37
2023-02-21T08:37:21.337Z,26.49
2023-02-21T08:40:10.049Z,26.69
2023-02-21T08:42:56.241Z,26.66
2023-02-21T08:45:45.071Z,26.75
2023-02-21T08:48:27.284Z,26.75
2023-02-21T08:51:16.202Z,26.92
2023-02-21T08:53:58.330Z,26.96
2023-02-21T08:56:46.962Z,26.82
2023-02-21T08:59:31.534Z,26.66
2023-02-21T09:02:26.017Z,26.61
2023-02-21T09:05:34.802Z,26.61
2023-02-21T09:08:23.940Z,26.53
2023-02-21T09:11:06.222Z,26.65
2023-02-21T09:13:55.369Z,26.72
2023-02-21T09:16:37.241Z,26.75
2023-02-21T09:19:25.938Z,26.73
2023-02-21T09:22:08.233Z,26.74
2023-02-21T09:24:56.960Z,26.79
2023-02-21T09:27:39.325Z,26.78
2023-02-21T09:30:32.104Z,26.75
2023-02-21T09:33:14.261Z,26.64
2023-02-21T09:36:03.256Z,26.68
2023-02-21T09:38:46.198Z,26.73
2023-02-21T09:41:35.960Z,26.58
2023-02-21T09:44:26.713Z,26.51
2023-02-21T09:47:17.936Z,26.52
2023-02-21T09:50:07.241Z,26.46
2023-02-21T09:53:06.227Z,26.45
2023-02-21T09:55:56.047Z,26.39
2023-02-21T09:58:44.378Z,26.31
2023-02-21T10:01:49.940Z,26.32
2023-02-21T10:05:11.838Z,26.38
2023-02-21T10:08:16.890Z,26.39
2023-02-21T10:11:06.374Z,26.30
2023-02-21T10:14:22.937Z,26.22
2023-02-21T10:17:21.306Z,26.20
2023-02-21T10:20:24.077Z,26.20
2023-02-21T10:23:09.154Z,26.11
2023-02-21T10:26:04.003Z,26.18
2023-02-21T10:28:46.248Z,26.25
2023-02-21T10:31:37.039Z,26.26
2023-02-21T10:34:32.270Z,26.20
2023-02-21T10:37:48.962Z,26.15
2023-02-21T10:41:00.407Z,26.14
2023-02-21T10:43:56.944Z,26.11
2023-02-21T10:46:51.184Z,26.07
2023-02-21T10:50:15.986Z,25.96
2023-02-21T10:52:59.753Z,25.93
2023-02-21T10:55:48.975Z,25.94
2023-02-21T10:58:35.231Z,25.91
2023-02-21T11:01:32.928Z,25.83
2023-02-21T11:04:45.820Z,25.82
2023-02-21T11:07:34.983Z,25.71
2023-02-21T11:10:41.424Z,25.63
2023-02-21T11:13:30.984Z,25.61
2023-02-21T11:16:19.236Z,25.60
2023-02-21T11:19:15.990Z,25.48
2023-02-21T11:22:06.078Z,25.43
2023-02-21T11:25:08.054Z,25.38
2023-02-21T11:27:50.169Z,25.32
2023-02-21T11:30:43.142Z,25.24
2023-02-21T11:33:30.194Z,25.25
2023-02-21T11:36:24.897Z,25.18
2023-02-21T11:39:18.245Z,25.13
2023-02-21T11:42:11.077Z,25.09
2023-02-21T11:44:55.210Z,25.05
2023-02-21T11:48:00.982Z,24.98
2023-02-21T11:50:50.237Z,24.86
2023-02-21T11:53:50.887Z,24.79
2023-02-21T11:57:08.888Z,24.67
2023-02-21T12:00:09.672Z,24.57
2023-02-21T12:03:18.954Z,24.46
2023-02-21T12:07:07.940Z,24.38
2023-02-21T12:10:05.296Z,24.28
2023-02-21T12:13:02.316Z,24.16
2023-02-21T12:16:03.295Z,24.12
2023-02-21T12:19:01.015Z,24.03
2023-02-21T12:22:11.281Z,23.93
2023-02-21T12:25:11.965Z,23.91
2023-02-21T12:28:18.937Z,23.76
2023-02-21T12:32:15.958Z,23.61
2023-02-21T12:35:23.383Z,23.50
2023-02-21T12:38:18.923Z,23.44
2023-02-21T12:41:38.434Z,23.31
2023-02-21T12:44:23.861Z,23.28
2023-02-21T12:47:32.245Z,23.24
2023-02-21T12:50:21.973Z,23.13
2023-02-21T12:53:20.253Z,23.05
2023-02-21T12:56:25.978Z,22.93
2023-02-21T12:59:46.465Z,22.81
2023-02-21T13:02:49.097Z,22.74
2023-02-21T13:05:50.092Z,22.68
2023-02-21T13:09:08.921Z,22.59
2023-02-21T13:11:59.752Z,22.54
2023-02-21T13:15:17.972Z,22.46
2023-02-21T13:18:14.291Z,22.33
2023-02-21T13:21:20.912Z,22.31
2023-02-21T13:24:39.262Z,22.27
2023-02-21T13:28:06.956Z,22.20
2023-02-21T13:30:57.006Z,22.16
2023-02-21T13:34:07.302Z,22.09
2023-02-21T13:36:53.869Z,22.02
2023-02-21T13:39:44.454Z,21.94
2023-02-21T13:42:28.939Z,21.88
2023-02-21T13:45:31.306Z,21.85
2023-02-21T13:48:16.916Z,21.75
2023-02-21T13:51:08.350Z,21.68
2023-02-21T13:54:18.005Z,21.55
2023-02-21T13:57:06.233Z,21.46
2023-02-21T13:59:49.012Z,21.40
2023-02-21T14:02:38.263Z,21.30
2023-02-21T14:05:21.015Z,21.23
2023-02-21T14:08:16.181Z,21.16
2023-02-21T14:11:10.929Z,21.04
2023-02-21T14:14:07.291Z,21.01
2023-02-21T14:17:00.901Z,20.93
2023-02-21T14:20:00.580Z,20.87
2023-02-21T14:22:44.012Z,20.97
2023-02-21T14:25:34.426Z,21.01
2023-02-21T14:28:52.867Z,21.04
2023-02-21T14:32:06.166Z,20.73
2023-02-21T14:34:57.986Z,20.61
2023-02-21T14:38:12.117Z,20.55
2023-02-21T14:41:23.971Z,20.45
2023-02-21T14:44:21.903Z,20.37
2023-02-21T14:47:21.029Z,20.27
2023-02-21T14:50:21.351Z,20.17
2023-02-21T14:53:46.036Z,20.18
2023-02-21T14:56:43.271Z,20.11
2023-02-21T14:59:47.984Z,19.93
2023-02-21T15:03:11.374Z,19.90
2023-02-21T15:06:21.926Z,19.85
2023-02-21T15:09:21.288Z,19.85
2023-02-21T15:12:03.941Z,19.84
2023-02-21T15:15:01.356Z,19.83
2023-02-21T15:17:42.967Z,19.72
2023-02-21T15:20:32.353Z,19.70
2023-02-21T15:23:26.940Z,19.64
2023-02-21T15:26:31.154Z,19.59
2023-02-21T15:29:14.864Z,19.54
2023-02-21T15:32:05.323Z,19.66
2023-02-21T15:34:48.905Z,19.65
2023-02-21T15:37:34.193Z,19.53
2023-02-21T15:40:31.940Z,19.38
2023-02-21T15:43:37.234Z,19.30
2023-02-21T15:46:26.053Z,19.25
2023-02-21T15:49:15.278Z,19.25
2023-02-21T15:51:57.962Z,19.29
2023-02-21T15:54:41.014Z,19.24
2023-02-21T15:57:38.861Z,19.25
2023-02-21T16:00:28.501Z,19.57
2023-02-21T16:03:50.904Z,19.71
2023-02-21T16:06:39.982Z,19.39
2023-02-21T16:09:44.869Z,19.50
2023-02-21T16:12:30.264Z,19.36
2023-02-21T16:15:29.937Z,19.34
2023-02-21T16:18:19.133Z,19.43
2023-02-21T16:21:17.157Z,19.46
2023-02-21T16:24:21.218Z,19.47
2023-02-21T16:27:22.903Z,19.24
2023-02-21T16:30:07.103Z,19.07
2023-02-21T16:32:58.858Z,19.04
2023-02-21T16:35:41.918Z,18.97
2023-02-21T16:38:33.972Z,18.96
2023-02-21T16:41:24.379Z,19.44
2023-02-21T16:44:06.900Z,19.30
2023-02-21T16:46:58.337Z,19.12
2023-02-21T16:49:40.982Z,18.97
2023-02-21T16:52:29.413Z,19.02
2023-02-21T16:55:11.924Z,18.82
2023-02-21T16:58:05.196Z,18.97
2023-02-21T17:00:48.099Z,18.69
2023-02-21T17:03:37.398Z,18.56
2023-02-21T17:06:27.059Z,18.54
2023-02-21T17:09:16.440Z,18.42
2023-02-21T17:11:58.926Z,18.33
2023-02-21T17:14:41.927Z,18.28
2023-02-21T17:17:31.980Z,18.22
2023-02-21T17:20:25.279Z,18.18
2023-02-21T17:23:07.951Z,18.22
2023-02-21T17:25:57.220Z,18.31
2023-02-21T17:28:39.970Z,18.32
2023-02-21T17:31:35.936Z,18.25
2023-02-21T17:34:31.023Z,18.28
2023-02-21T17:37:20.216Z,18.19
2023-02-21T17:40:03.955Z,18.16
2023-02-21T17:42:54.279Z,18.08
2023-02-21T17:45:36.928Z,18.02
2023-02-21T17:48:26.373Z,18.10
2023-02-21T17:51:09.954Z,18.13
2023-02-21T17:53:59.325Z,17.99
2023-02-21T17:56:41.916Z,17.90
2023-02-21T17:59:24.400Z,17.85
2023-02-21T18:02:13.313Z,17.80
2023-02-21T18:05:02.437Z,17.78
2023-02-21T18:07:44.861Z,17.91
2023-02-21T18:10:35.338Z,18.00
2023-02-21T18:13:16.960Z,18.09
2023-02-21T18:16:00.590Z,18.11
2023-02-21T18:18:50.983Z,18.26
2023-02-21T18:21:42.499Z,18.14
2023-02-21T18:24:26.941Z,18.11
2023-02-21T18:27:18.587Z,18.14
2023-02-21T18:30:04.061Z,18.57
2023-02-21T18:32:54.254Z,18.47
2023-02-21T18:35:37.008Z,18.11
2023-02-21T18:38:26.596Z,18.04
2023-02-21T18:41:09.845Z,17.92
2023-02-21T18:43:59.324Z,17.81
2023-02-21T18:46:42.023Z,17.78
2023-02-21T18:49:38.825Z,17.72
2023-02-21T18:52:21.912Z,17.64
2023-02-21T18:55:10.345Z,17.91
2023-02-21T18:57:52.891Z,17.91
2023-02-21T19:00:42.286Z,17.70
2023-02-21T19:03:24.988Z,17.56
2023-02-21T19:06:16.288Z,17.45
2023-02-21T19:09:00.335Z,17.33
2023-02-21T19:11:49.421Z,17.25
2023-02-21T19:14:31.884Z,17.16
2023-02-21T19:17:20.950Z,17.14
2023-02-21T19:20:03.450Z,17.12
2023-02-21T19:22:51.929Z,17.10
2023-02-21T19:25:34.307Z,17.06
2023-02-21T19:28:22.866Z,17.01
2023-02-21T19:31:05.458Z,16.98
2023-02-21T19:33:53.901Z,16.95
2023-02-21T19:36:38.565Z,16.98
2023-02-21T19:39:27.956Z,16.94
2023-02-21T19:42:12.037Z,16.94
2023-02-21T19:45:00.913Z,16.92
2023-02-21T19:47:43.288Z,16.86
2023-02-21T19:50:31.867Z,16.87
2023-02-21T19:53:14.224Z,16.82
2023-02-21T19:56:02.831Z,16.82
2023-02-21T19:58:46.390Z,16.78
2023-02-21T20:01:36.966Z,16.78
2023-02-21T20:04:19.417Z,16.76
2023-02-21T20:07:08.303Z,16.73
2023-02-21T20:09:51.277Z,16.72
2023-02-21T20:12:39.855Z,16.69
2023-02-21T20:15:22.177Z,16.65
2023-02-21T20:18:11.892Z,16.65
2023-02-21T20:20:54.253Z,16.64
2023-02-21T20:23:42.875Z,16.61
2023-02-21T20:26:26.115Z,16.59
2023-02-21T20:29:14.927Z,16.51
2023-02-21T20:32:11.917Z,16.52
2023-02-21T20:35:02.992Z,16.49
2023-02-21T20:37:45.479Z,16.47
2023-02-21T20:40:34.887Z,16.45
2023-02-21T20:43:17.239Z,16.43
2023-02-21T20:46:05.969Z,16.42
2023-02-21T20:48:48.122Z,16.39
2023-02-21T20:51:38.990Z,16.43
2023-02-21T20:54:24.196Z,16.56
2023-02-21T20:57:12.936Z,16.44
2023-02-21T20:59:55.112Z,16.42
2023-02-21T21:02:43.843Z,16.39
2023-02-21T21:05:27.321Z,16.29
2023-02-21T21:08:17.001Z,16.40
2023-02-21T21:10:59.364Z,16.34
2023-02-21T21:13:48.290Z,16.28
2023-02-21T21:16:30.210Z,16.89
2023-02-21T21:19:19.791Z,16.58
2023-02-21T21:22:03.245Z,16.45
2023-02-21T21:24:51.877Z,16.37
2023-02-21T21:27:34.105Z,16.25
2023-02-21T21:30:29.971Z,16.18
2023-02-21T21:33:26.719Z,16.12
2023-02-21T21:36:18.946Z,16.23
2023-02-21T21:39:01.249Z,16.16
2023-02-21T21:41:53.869Z,16.17
2023-02-21T21:44:42.858Z,16.08
2023-02-21T21:47:39.867Z,16.03
2023-02-21T21:50:23.175Z,16.11
2023-02-21T21:53:13.033Z,16.34
2023-02-21T21:55:55.209Z,16.22
2023-02-21T21:58:43.820Z,16.10
2023-02-21T22:01:33.920Z,16.02
2023-02-21T22:04:16.126Z,15.90
2023-02-21T22:07:04.883Z,15.86
2023-02-21T22:09:53.169Z,15.85
2023-02-21T22:12:36.903Z,15.95
2023-02-21T22:15:22.684Z,16.17
2023-02-21T22:18:11.855Z,16.02
2023-02-21T22:20:54.180Z,15.92
2023-02-21T22:23:42.910Z,15.86
2023-02-21T22:26:34.075Z,15.80
2023-02-21T22:29:15.877Z,15.77
2023-02-21T22:32:05.802Z,15.77
2023-02-21T22:35:00.887Z,15.72
2023-02-21T22:37:51.924Z,15.65
2023-02-21T22:40:48.311Z,15.60
2023-02-21T22:43:36.193Z,15.60
2023-02-21T22:46:18.865Z,15.62
2023-02-21T22:49:00.966Z,15.61
2023-02-21T22:51:49.891Z,15.55
2023-02-21T22:54:38.119Z,15.52
2023-02-21T22:57:22.803Z,15.49
2023-02-21T23:00:20.317Z,15.53
2023-02-21T23:03:02.841Z,15.54
2023-02-21T23:05:48.740Z,15.49
2023-02-21T23:08:37.938Z,15.41
2023-02-21T23:11:32.344Z,15.48
2023-02-21T23:14:16.156Z,15.50
2023-02-21T23:16:59.714Z,15.43
2023-02-21T23:19:48.882Z,15.39
2023-02-21T23:22:31.003Z,15.34
2023-02-21T23:25:28.225Z,15.33
2023-02-21T23:28:25.793Z,15.28
2023-02-21T23:31:08.184Z,15.29
2023-02-21T23:33:56.820Z,15.22
2023-02-21T23:36:42.808Z,15.25
2023-02-21T23:39:32.828Z,15.22
2023-02-21T23:42:21.097Z,15.20
2023-02-21T23:45:04.975Z,15.37
2023-02-21T23:47:57.243Z,15.75
2023-02-21T23:50:38.779Z,15.51
2023-02-21T23:53:30.916Z,15.76
2023-02-21T23:56:14.070Z,15.68
2023-02-21T23:59:02.946Z,15.40
